Time;durP1;ratioP1;P1;durP2;ratioP2;P2;SDS_P1;SDS_P2;PMS_P1;PMS_P2;Temp;Humidity;BMP_temperature;BMP_pressure;BME280_temperature;BME280_humidity;BME280_pressure;Samples;Min_cycle;Max_cycle;Signal;HPM_P1;HPM_P2
2022/10/28 00:02:05;;;;;;;;;;;;;;;13.30;100.00;100742.03;5128770;28;19908;-68
2022/10/28 00:04:30;;;;;;;;;;;;;;;13.31;100.00;100748.97;5128449;28;19908;-68
2022/10/28 00:06:56;;;;;;;;;;;;;;;13.32;100.00;100750.69;5128755;28;19957;-67
2022/10/28 00:09:21;;;;;;;;;;;;;;;13.37;100.00;100733.22;5128565;28;19960;-67
2022/10/28 00:11:46;;;;;;;;;;;;;;;13.40;100.00;100732.34;5128407;28;19912;-66
2022/10/28 00:14:12;;;;;;;;;;;;;;;13.38;100.00;100727.16;5128403;28;19908;-67
2022/10/28 00:16:37;;;;;;;;;;;;;;;13.35;100.00;100724.59;5128417;28;19937;-67
2022/10/28 00:19:04;;;;;;;;;;;;;;;13.33;100.00;100718.53;5127952;28;19961;-69
2022/10/28 00:21:30;;;;;;;;;;;;;;;13.36;100.00;100715.88;5127843;28;19907;-67
2022/10/28 00:23:56;;;;;;;;;;;;;;;13.37;100.00;100704.53;5128149;28;19980;-67
2022/10/28 00:26:23;;;;;;;;;;;;;;;13.35;100.00;100698.50;5128336;28;19908;-67
2022/10/28 00:28:50;;;;;;;;;;;;;;;13.30;100.00;100692.50;5128169;28;19908;-67
2022/10/28 00:31:16;;;;;;;;;;;;;;;13.27;100.00;100674.31;5128260;28;19911;-68
2022/10/28 00:33:41;;;;;;;;;;;;;;;13.30;100.00;100661.22;5128025;28;19914;-68
2022/10/28 00:36:11;;;;;;;;;;;;;;;13.35;100.00;100651.56;5109699;28;19978;-68
2022/10/28 00:38:37;;;;;;;;;;;;;;;13.39;100.00;100634.13;5128131;28;19915;-68
2022/10/28 00:41:03;;;;;;;;;;;;;;;13.23;100.00;100628.28;5128019;28;19925;-68
2022/10/28 00:43:32;;;;;;;;;;;;;;;13.34;100.00;100626.38;5128017;28;19911;-67
2022/10/28 00:45:57;;;;;;;;;;;;;;;13.30;100.00;100632.53;5127862;28;19938;-68
2022/10/28 00:48:23;;;;;;;;;;;;;;;13.30;100.00;100636.88;5127815;28;19908;-67
2022/10/28 00:50:50;;;;;;;;;;;;;;;13.33;100.00;100632.47;5127505;28;19957;-67
2022/10/28 00:53:19;;;;;;;;;;;;;;;13.25;100.00;100622.19;5127907;28;19908;-67
2022/10/28 00:55:46;;;;;;;;;;;;;;;13.23;100.00;100615.25;5127731;28;20283;-67
2022/10/28 00:58:11;;;;;;;;;;;;;;;13.27;100.00;100617.78;5127720;28;19939;-67
2022/10/28 01:00:36;;;;;;;;;;;;;;;13.24;100.00;100624.81;5127617;28;19961;-66
2022/10/28 01:03:02;;;;;;;;;;;;;;;13.13;100.00;100615.41;5127432;28;19915;-67
2022/10/28 01:05:30;;;;;;;;;;;;;;;13.14;100.00;100606.72;5127385;28;19983;-67
2022/10/28 01:07:59;;;;;;;;;;;;;;;13.20;100.00;100607.47;5127318;28;19963;-66
2022/10/28 01:10:30;;;;;;;;;;;;;;;13.24;100.00;100617.81;5109123;28;19922;-67
2022/10/28 01:13:03;;;;;;;;;;;;;;;13.12;100.00;100624.13;5127325;28;19907;-66
2022/10/28 01:15:31;;;;;;;;;;;;;;;13.09;100.00;100618.94;5127188;28;19950;-67
2022/10/28 01:18:03;;;;;;;;;;;;;;;13.24;100.00;100603.97;5127095;28;19914;-66
2022/10/28 01:20:31;;;;;;;;;;;;;;;13.19;100.00;100597.94;5127213;28;19907;-66
2022/10/28 01:23:15;;;;;;;;;;;;;;;13.24;100.00;100596.13;5127193;28;20306;-66
2022/10/28 01:25:43;;;;;;;;;;;;;;;13.38;100.00;100594.16;5126920;28;20275;-66
2022/10/28 01:28:17;;;;;;;;;;;;;;;13.19;100.00;100591.00;5108459;28;19969;-66
2022/10/28 01:31:04;;;;;;;;;;;;;;;13.20;100.00;100587.50;5126872;28;19918;-67
2022/10/28 01:33:50;;;;;;;;;;;;;;;13.23;100.00;100581.34;5126607;28;20424;-66
2022/10/28 01:36:19;;;;;;;;;;;;;;;13.25;100.00;100570.03;5067094;28;20348;-66
2022/10/28 01:38:44;;;;;;;;;;;;;;;13.37;100.00;100570.72;5108558;28;20350;-67
2022/10/28 01:41:14;;;;;;;;;;;;;;;13.28;100.00;100566.50;5126888;28;19915;-67
2022/10/28 01:43:57;;;;;;;;;;;;;;;13.30;100.00;100569.94;5126602;28;19960;-66
2022/10/28 01:46:30;;;;;;;;;;;;;;;13.36;100.00;100559.41;5126887;28;19915;-65
2022/10/28 01:49:01;;;;;;;;;;;;;;;13.43;100.00;100567.13;5126512;28;19911;-70
2022/10/28 01:51:32;;;;;;;;;;;;;;;13.40;100.00;100552.41;5126871;28;19911;-69
2022/10/28 01:54:00;;;;;;;;;;;;;;;13.41;100.00;100542.81;5126512;28;19931;-70
2022/10/28 01:56:29;;;;;;;;;;;;;;;13.50;100.00;100545.25;5126623;28;19974;-69
2022/10/28 01:58:55;;;;;;;;;;;;;;;13.44;100.00;100555.78;5126586;28;19912;-70
2022/10/28 02:01:21;;;;;;;;;;;;;;;13.33;100.00;100551.66;5126680;28;19914;-70
2022/10/28 02:03:46;;;;;;;;;;;;;;;13.35;100.00;100564.66;5126303;28;19907;-70
2022/10/28 02:06:16;;;;;;;;;;;;;;;13.38;100.00;100560.25;5126208;28;19953;-71
2022/10/28 02:08:47;;;;;;;;;;;;;;;13.46;100.00;100554.03;5126391;28;19914;-70
2022/10/28 02:11:21;;;;;;;;;;;;;;;13.51;100.00;100554.84;5126421;28;19919;-70
2022/10/28 02:13:55;;;;;;;;;;;;;;;13.47;100.00;100550.53;5126334;28;19966;-71
2022/10/28 02:16:55;;;;;;;;;;;;;;;13.48;100.00;100541.84;5126612;28;19954;-71
2022/10/28 02:19:29;;;;;;;;;;;;;;;13.56;100.00;100518.25;5023379;28;19910;-70
2022/10/28 02:21:57;;;;;;;;;;;;;;;13.49;100.00;100507.03;5023307;28;19940;-70
2022/10/28 02:24:31;;;;;;;;;;;;;;;13.59;100.00;100502.53;5023296;28;19916;-69
2022/10/28 02:27:15;;;;;;;;;;;;;;;13.56;100.00;100503.44;5023472;28;19917;-69
2022/10/28 02:29:46;;;;;;;;;;;;;;;13.55;100.00;100498.25;5023437;28;20012;-70
2022/10/28 02:32:14;;;;;;;;;;;;;;;13.52;100.00;100491.34;5023204;28;20312;-70
2022/10/28 02:34:43;;;;;;;;;;;;;;;13.57;100.00;100494.75;5023148;28;19909;-69
2022/10/28 02:37:12;;;;;;;;;;;;;;;13.48;100.00;100493.13;5022996;28;19917;-69
2022/10/28 02:39:43;;;;;;;;;;;;;;;13.66;100.00;100496.28;5023449;28;19909;-68
2022/10/28 02:42:18;;;;;;;;;;;;;;;13.57;100.00;100489.53;5023437;28;19909;-68
2022/10/28 02:44:47;;;;;;;;;;;;;;;13.59;100.00;100476.44;5023831;28;19909;-69
2022/10/28 02:47:18;;;;;;;;;;;;;;;13.56;100.00;100474.75;5027397;28;19963;-68
2022/10/28 02:49:46;;;;;;;;;;;;;;;13.54;100.00;100476.53;5027224;28;19909;-69
2022/10/28 02:52:12;;;;;;;;;;;;;;;13.49;100.00;100467.91;5030863;28;19913;-69
2022/10/28 02:54:52;;;;;;;;;;;;;;;13.44;100.00;100456.69;5130002;28;19915;-69
2022/10/28 02:57:20;;;;;;;;;;;;;;;13.53;100.00;100466.97;5130129;28;20268;-70
2022/10/28 02:59:53;;;;;;;;;;;;;;;13.53;100.00;100453.94;5129922;28;19908;-70
2022/10/28 03:02:18;;;;;;;;;;;;;;;13.48;100.00;100454.00;5129890;28;19915;-69
2022/10/28 03:04:43;;;;;;;;;;;;;;;13.48;100.00;100463.59;5129699;28;19908;-69
2022/10/28 03:07:08;;;;;;;;;;;;;;;13.54;100.00;100458.28;5111530;28;19939;-69
2022/10/28 03:09:33;;;;;;;;;;;;;;;13.56;100.00;100455.66;5129800;28;19919;-69
2022/10/28 03:11:59;;;;;;;;;;;;;;;13.56;100.00;100453.88;5129650;28;19911;-70
2022/10/28 03:14:24;;;;;;;;;;;;;;;13.59;100.00;100439.94;5111167;28;19912;-69
2022/10/28 03:16:49;;;;;;;;;;;;;;;13.59;100.00;100456.44;5129761;28;19907;-69
2022/10/28 03:19:14;;;;;;;;;;;;;;;13.69;100.00;100451.88;5110900;28;19970;-70
2022/10/28 03:21:39;;;;;;;;;;;;;;;13.57;100.00;100450.41;5129336;28;19975;-70
2022/10/28 03:24:05;;;;;;;;;;;;;;;13.55;100.00;100454.78;5129448;28;20002;-70
2022/10/28 03:26:30;;;;;;;;;;;;;;;13.51;100.00;100455.75;5129669;28;19957;-70
2022/10/28 03:28:55;;;;;;;;;;;;;;;13.52;100.00;100457.44;5129507;28;19907;-69
2022/10/28 03:31:20;;;;;;;;;;;;;;;13.48;100.00;100459.22;5129324;28;19911;-68
2022/10/28 03:33:46;;;;;;;;;;;;;;;13.50;100.00;100447.03;5129164;28;19907;-70
2022/10/28 03:36:11;;;;;;;;;;;;;;;13.46;100.00;100449.72;5128906;28;19974;-69
2022/10/28 03:38:36;;;;;;;;;;;;;;;13.44;100.00;100434.09;5129273;28;19912;-70
2022/10/28 03:41:01;;;;;;;;;;;;;;;13.47;100.00;100435.78;5129228;28;19923;-70
2022/10/28 03:43:27;;;;;;;;;;;;;;;13.46;100.00;100440.16;5129172;28;19908;-70
2022/10/28 03:45:52;;;;;;;;;;;;;;;13.38;100.00;100445.53;5129172;28;19907;-70
2022/10/28 03:48:17;;;;;;;;;;;;;;;13.32;100.00;100443.00;5128922;28;19967;-71
2022/10/28 03:50:42;;;;;;;;;;;;;;;13.33;100.00;100442.13;5128665;28;19918;-71
2022/10/28 03:53:07;;;;;;;;;;;;;;;13.32;100.00;100435.19;5128810;28;19908;-71
2022/10/28 03:55:33;;;;;;;;;;;;;;;13.32;100.00;100437.78;5128822;28;19929;-71
2022/10/28 03:58:01;;;;;;;;;;;;;;;13.31;100.00;100445.66;5127350;28;19907;-71
2022/10/28 04:00:27;;;;;;;;;;;;;;;13.28;100.00;100443.97;5128637;28;19907;-70
2022/10/28 04:02:52;;;;;;;;;;;;;;;13.42;100.00;100437.63;5128656;28;19915;-70
2022/10/28 04:05:18;;;;;;;;;;;;;;;13.31;100.00;100446.50;5128339;28;19922;-71
2022/10/28 04:07:46;;;;;;;;;;;;;;;13.27;100.00;100430.06;5128751;28;19907;-70
2022/10/28 04:10:12;;;;;;;;;;;;;;;13.21;100.00;100438.00;5128518;28;20246;-71
2022/10/28 04:12:37;;;;;;;;;;;;;;;13.19;100.00;100436.31;5128684;28;19966;-70
2022/10/28 04:15:02;;;;;;;;;;;;;;;13.21;100.00;100434.56;5128427;28;19975;-70
2022/10/28 04:17:28;;;;;;;;;;;;;;;13.23;100.00;100428.41;5128347;28;19907;-70
2022/10/28 04:19:53;;;;;;;;;;;;;;;13.21;100.00;100419.75;5128221;28;19982;-70
2022/10/28 04:22:18;;;;;;;;;;;;;;;13.19;100.00;100423.28;5128256;28;19907;-71
2022/10/28 04:24:43;;;;;;;;;;;;;;;13.19;100.00;100420.69;5110040;28;19912;-70
2022/10/28 04:27:09;;;;;;;;;;;;;;;13.19;100.00;100420.69;5110089;28;19908;-70
2022/10/28 04:29:35;;;;;;;;;;;;;;;13.18;100.00;100424.19;5128110;28;19912;-70
2022/10/28 04:32:00;;;;;;;;;;;;;;;13.18;100.00;100429.41;5128121;28;19960;-71
2022/10/28 04:34:25;;;;;;;;;;;;;;;13.18;100.00;100424.19;5127775;28;19907;-72
2022/10/28 04:36:50;;;;;;;;;;;;;;;13.18;100.00;100430.25;5127833;28;19927;-71
2022/10/28 04:39:15;;;;;;;;;;;;;;;13.22;100.00;100418.03;5128001;28;19911;-70
2022/10/28 04:41:41;;;;;;;;;;;;;;;13.22;100.00;100405.84;5127992;28;19907;-65
2022/10/28 04:44:06;;;;;;;;;;;;;;;13.23;100.00;100406.69;5128081;28;19914;-67
2022/10/28 04:46:31;;;;;;;;;;;;;;;13.24;100.00;100411.03;5127988;28;19976;-65
2022/10/28 04:48:56;;;;;;;;;;;;;;;13.22;100.00;100405.84;5127926;28;19928;-67
2022/10/28 04:51:22;;;;;;;;;;;;;;;13.17;100.00;100401.59;5127588;28;19918;-68
2022/10/28 04:53:47;;;;;;;;;;;;;;;13.15;100.00;100404.22;5127560;28;19908;-68
2022/10/28 04:56:12;;;;;;;;;;;;;;;13.17;100.00;100412.91;5127697;28;19931;-67
2022/10/28 04:58:37;;;;;;;;;;;;;;;13.18;100.00;100412.00;5127566;28;19979;-69
2022/10/28 05:01:06;;;;;;;;;;;;;;;13.17;100.00;100404.22;5127591;28;19908;-69
2022/10/28 05:03:32;;;;;;;;;;;;;;;13.24;100.00;100418.84;5127649;28;19922;-69
2022/10/28 05:05:57;;;;;;;;;;;;;;;13.19;100.00;100403.31;5127410;28;19908;-69
2022/10/28 05:08:22;;;;;;;;;;;;;;;13.18;100.00;100403.34;5127043;28;19907;-68
2022/10/28 05:10:49;;;;;;;;;;;;;;;13.19;100.00;100395.47;5127229;28;19912;-67
2022/10/28 05:13:15;;;;;;;;;;;;;;;13.21;100.00;100398.91;5127661;28;20363;-67
2022/10/28 05:15:40;;;;;;;;;;;;;;;13.20;100.00;100401.53;5127452;28;19907;-67
2022/10/28 05:18:05;;;;;;;;;;;;;;;13.24;100.00;100398.00;5127167;28;19998;-66
2022/10/28 05:20:30;;;;;;;;;;;;;;;13.27;100.00;100398.78;5127051;28;19976;-68
2022/10/28 05:22:56;;;;;;;;;;;;;;;13.25;100.00;100397.09;5127022;28;19950;-67
2022/10/28 05:25:21;;;;;;;;;;;;;;;13.24;100.00;100392.78;5126648;28;19915;-67
2022/10/28 05:27:46;;;;;;;;;;;;;;;13.24;100.00;100385.81;5127084;28;19914;-67
2022/10/28 05:30:12;;;;;;;;;;;;;;;13.21;100.00;100391.06;5126922;28;19977;-67
2022/10/28 05:32:37;;;;;;;;;;;;;;;13.20;100.00;100402.41;5126914;28;19907;-62
2022/10/28 05:35:03;;;;;;;;;;;;;;;13.22;100.00;100394.56;5126750;28;19907;-63
2022/10/28 05:37:28;;;;;;;;;;;;;;;13.22;100.00;100381.53;5126629;28;19915;-63
2022/10/28 05:39:54;;;;;;;;;;;;;;;13.21;100.00;100387.63;5127007;28;20005;-66
2022/10/28 05:42:19;;;;;;;;;;;;;;;13.19;100.00;100392.88;5126417;28;19908;-67
2022/10/28 05:44:44;;;;;;;;;;;;;;;13.14;100.00;100394.72;5126167;28;19912;-67
2022/10/28 05:47:09;;;;;;;;;;;;;;;13.12;100.00;100393.88;5126909;28;19907;-66
2022/10/28 05:49:35;;;;;;;;;;;;;;;13.06;100.00;100383.56;5126375;28;19908;-67
2022/10/28 05:52:00;;;;;;;;;;;;;;;13.11;100.00;100381.75;5126798;28;19911;-67
2022/10/28 05:54:25;;;;;;;;;;;;;;;13.06;100.00;100402.69;5108225;28;19907;-68
2022/10/28 05:56:50;;;;;;;;;;;;;;;13.05;100.00;100397.50;5126657;28;19908;-68
2022/10/28 05:59:16;;;;;;;;;;;;;;;13.07;100.00;100403.50;5126548;28;19907;-65
2022/10/28 06:01:41;;;;;;;;;;;;;;;13.02;100.00;100404.47;5126691;28;19908;-67
2022/10/28 06:04:06;;;;;;;;;;;;;;;13.01;100.00;100399.28;5126523;28;19908;-67
2022/10/28 06:06:31;;;;;;;;;;;;;;;12.99;100.00;100398.44;5126567;28;19930;-66
2022/10/28 06:08:57;;;;;;;;;;;;;;;12.97;100.00;100395.03;5126473;28;19951;-66
2022/10/28 06:11:22;;;;;;;;;;;;;;;12.96;100.00;100408.94;5126662;28;19912;-66
2022/10/28 06:13:47;;;;;;;;;;;;;;;12.96;100.00;100407.19;5126678;28;19908;-67
2022/10/28 06:16:12;;;;;;;;;;;;;;;12.93;100.00;100409.00;5126500;28;19935;-67
2022/10/28 06:18:37;;;;;;;;;;;;;;;12.90;100.00;100409.91;5126473;28;19907;-68
2022/10/28 06:21:03;;;;;;;;;;;;;;;12.90;100.00;100409.91;5125390;28;19939;-68
2022/10/28 06:23:28;;;;;;;;;;;;;;;12.89;100.00;100406.44;5126391;28;19908;-67
2022/10/28 06:25:57;;;;;;;;;;;;;;;12.89;100.00;100416.88;5126287;28;19912;-68
2022/10/28 06:28:23;;;;;;;;;;;;;;;12.92;100.00;100421.19;5126432;28;19908;-68
2022/10/28 06:30:48;;;;;;;;;;;;;;;12.89;100.00;100419.47;5126217;28;19918;-68
2022/10/28 06:33:13;;;;;;;;;;;;;;;12.93;100.00;100416.81;5126255;28;19911;-67
2022/10/28 06:35:39;;;;;;;;;;;;;;;12.95;100.00;100412.44;5125984;28;19907;-67
2022/10/28 06:38:04;;;;;;;;;;;;;;;12.94;100.00;100416.78;5126031;28;19964;-67
2022/10/28 06:40:29;;;;;;;;;;;;;;;12.97;100.00;100423.69;5126460;28;19915;-68
2022/10/28 06:43:02;;;;;;;;;;;;;;;13.00;100.00;100426.25;5126342;28;19907;-67
2022/10/28 06:45:28;;;;;;;;;;;;;;;13.03;100.00;100434.00;5126075;28;19908;-67
2022/10/28 06:47:54;;;;;;;;;;;;;;;13.05;100.00;100437.44;5126305;28;19915;-68
2022/10/28 06:50:20;;;;;;;;;;;;;;;13.07;100.00;100438.28;5125892;28;19914;-68
2022/10/28 06:52:45;;;;;;;;;;;;;;;13.10;100.00;100435.59;5107881;28;19907;-66
2022/10/28 06:55:10;;;;;;;;;;;;;;;13.11;100.00;100444.28;5126122;28;19908;-67
2022/10/28 06:57:35;;;;;;;;;;;;;;;13.12;100.00;100451.22;5126148;28;19907;-67
2022/10/28 07:00:01;;;;;;;;;;;;;;;13.14;100.00;100444.22;5126194;28;19995;-67
2022/10/28 07:02:26;;;;;;;;;;;;;;;13.14;100.00;100449.44;5126239;28;19953;-68
2022/10/28 07:04:51;;;;;;;;;;;;;;;13.12;100.00;100456.44;5107792;28;19907;-69
2022/10/28 07:07:16;;;;;;;;;;;;;;;13.16;100.00;100462.44;5107803;28;19907;-68
2022/10/28 07:09:42;;;;;;;;;;;;;;;13.14;100.00;100463.34;5126074;28;20367;-68
2022/10/28 07:12:07;;;;;;;;;;;;;;;13.16;100.00;100468.53;5126091;28;20409;-68
2022/10/28 07:14:33;;;;;;;;;;;;;;;13.19;100.00;100471.09;5125765;28;19929;-68
2022/10/28 07:16:58;;;;;;;;;;;;;;;13.21;100.00;100484.94;5126079;28;19918;-68
2022/10/28 07:19:24;;;;;;;;;;;;;;;13.21;100.00;100481.47;5125694;28;19935;-68
2022/10/28 07:21:49;;;;;;;;;;;;;;;13.18;100.00;100481.53;5107623;28;19911;-67
2022/10/28 07:24:14;;;;;;;;;;;;;;;13.15;100.00;100477.22;5125735;28;19911;-67
2022/10/28 07:26:39;;;;;;;;;;;;;;;13.14;100.00;100473.78;5126064;28;19953;-68
2022/10/28 07:29:04;;;;;;;;;;;;;;;13.14;100.00;100473.78;5107276;28;19908;-67
2022/10/28 07:31:30;;;;;;;;;;;;;;;13.13;100.00;100485.06;5108819;28;20296;-66
2022/10/28 07:33:55;;;;;;;;;;;;;;;13.17;100.00;100492.84;5129432;28;19998;-66
2022/10/28 07:36:21;;;;;;;;;;;;;;;13.16;100.00;100489.38;5129235;28;19908;-68
2022/10/28 07:38:53;;;;;;;;;;;;;;;13.19;100.00;100491.94;5129282;28;19977;-67
2022/10/28 07:41:19;;;;;;;;;;;;;;;13.17;100.00;100492.84;5129346;28;19910;-68
2022/10/28 07:43:44;;;;;;;;;;;;;;;13.19;100.00;100483.25;5129381;28;19997;-67
2022/10/28 07:46:10;;;;;;;;;;;;;;;13.20;100.00;100485.81;5129261;28;20260;-67
2022/10/28 07:48:35;;;;;;;;;;;;;;;13.23;100.00;100475.34;5129251;28;19961;-65
2022/10/28 07:51:02;;;;;;;;;;;;;;;13.31;100.00;100487.34;5128867;28;19912;-66
2022/10/28 07:53:27;;;;;;;;;;;;;;;13.26;100.00;100500.47;5129035;28;19907;-67
2022/10/28 07:55:56;;;;;;;;;;;;;;;13.26;100.00;100496.13;5129184;28;19912;-67
2022/10/28 07:58:21;;;;;;;;;;;;;;;13.29;100.00;100494.38;5129149;28;20008;-68
2022/10/28 08:00:47;;;;;;;;;;;;;;;13.26;100.00;100490.06;5128795;28;20373;-67
2022/10/28 08:03:12;;;;;;;;;;;;;;;13.28;100.00;100498.72;5128898;28;19909;-66
2022/10/28 08:05:37;;;;;;;;;;;;;;;13.27;100.00;100502.22;5128584;28;20161;-66
2022/10/28 08:08:03;;;;;;;;;;;;;;;13.25;100.00;100509.19;5128728;28;19907;-66
2022/10/28 08:10:28;;;;;;;;;;;;;;;13.25;100.00;100517.03;5128779;28;19912;-67
2022/10/28 08:12:54;;;;;;;;;;;;;;;13.29;100.00;100517.84;5128610;28;19929;-66
2022/10/28 08:15:22;;;;;;;;;;;;;;;13.29;100.00;100523.88;5128386;28;19908;-66
2022/10/28 08:17:51;;;;;;;;;;;;;;;13.29;100.00;100526.50;5128641;28;19908;-68
2022/10/28 08:20:16;;;;;;;;;;;;;;;13.28;100.00;100516.97;5128363;28;19908;-67
2022/10/28 08:22:41;;;;;;;;;;;;;;;13.28;100.00;100519.56;5128412;28;19914;-67
2022/10/28 08:25:07;;;;;;;;;;;;;;;13.28;100.00;100524.78;5128263;28;19951;-67
2022/10/28 08:27:32;;;;;;;;;;;;;;;13.29;100.00;100521.28;5109943;28;19908;-67
2022/10/28 08:29:57;;;;;;;;;;;;;;;13.31;100.00;100521.25;5128353;28;19908;-66
2022/10/28 08:32:22;;;;;;;;;;;;;;;13.33;100.00;100512.53;5128103;28;19927;-67
2022/10/28 08:34:48;;;;;;;;;;;;;;;13.33;100.00;100512.53;5128036;28;19914;-67
2022/10/28 08:37:14;;;;;;;;;;;;;;;13.32;100.00;100513.41;5128057;28;19916;-67
2022/10/28 08:39:40;;;;;;;;;;;;;;;13.32;100.00;100516.00;5128236;28;20359;-67
2022/10/28 08:42:23;;;;;;;;;;;;;;;13.36;100.00;100509.00;5127921;28;19934;-66
2022/10/28 08:44:55;;;;;;;;;;;;;;;13.39;100.00;100508.94;5127672;28;19975;-66
2022/10/28 08:47:39;;;;;;;;;;;;;;;13.37;100.00;100498.53;5128069;28;19907;-67
2022/10/28 08:50:13;;;;;;;;;;;;;;;13.38;100.00;100515.94;5127794;28;19939;-66
2022/10/28 08:52:38;;;;;;;;;;;;;;;13.42;100.00;100505.44;5127795;28;19919;-66
2022/10/28 08:55:05;;;;;;;;;;;;;;;13.42;100.00;100518.47;5127672;28;19908;-65
2022/10/28 08:57:34;;;;;;;;;;;;;;;13.39;100.00;100517.63;5128025;28;19915;-65
2022/10/28 09:00:01;;;;;;;;;;;;;;;13.41;100.00;100511.53;5127740;28;19907;-66
2022/10/28 09:02:30;;;;;;;;;;;;;;;13.38;100.00;100513.31;5127640;28;19908;-65
2022/10/28 09:05:06;;;;;;;;;;;;;;;13.42;100.00;100516.72;5127257;28;19908;-65
2022/10/28 09:07:34;;;;;;;;;;;;;;;13.43;100.00;100518.44;5127505;28;20252;-65
2022/10/28 09:09:59;;;;;;;;;;;;;;;13.39;100.00;100527.19;5127564;28;19907;-65
2022/10/28 09:12:42;;;;;;;;;;;;;;;13.41;100.00;100537.59;5127315;28;19937;-65
2022/10/28 09:15:26;;;;;;;;;;;;;;;13.41;100.00;100535.88;5127381;28;19915;-64
2022/10/28 09:17:53;;;;;;;;;;;;;;;13.44;100.00;100542.75;5127349;28;19907;-65
2022/10/28 09:20:38;;;;;;;;;;;;;;;13.44;100.00;100551.44;5127032;28;20342;-65
2022/10/28 09:23:22;;;;;;;;;;;;;;;13.43;100.00;100554.09;5127293;28;19988;-65
2022/10/28 09:25:50;;;;;;;;;;;;;;;13.50;100.00;100553.06;5127202;28;20154;-65
2022/10/28 09:28:30;;;;;;;;;;;;;;;13.48;100.00;100558.31;5127175;28;19961;-65
2022/10/28 09:31:07;;;;;;;;;;;;;;;13.46;100.00;100559.25;5127007;28;19912;-64
2022/10/28 09:33:41;;;;;;;;;;;;;;;13.44;100.00;100555.78;5127451;28;19995;-64
2022/10/28 09:36:11;;;;;;;;;;;;;;;13.35;100.00;100544.66;5126884;28;19912;-65
2022/10/28 09:38:39;;;;;;;;;;;;;;;13.39;100.00;100559.34;5126946;28;19923;-66
2022/10/28 09:41:10;;;;;;;;;;;;;;;13.39;100.00;100567.19;5127076;28;19912;-67
2022/10/28 09:43:39;;;;;;;;;;;;;;;13.36;100.00;100562.03;5126991;28;19914;-66
2022/10/28 09:46:07;;;;;;;;;;;;;;;13.35;100.00;100562.94;5126808;28;19971;-67
2022/10/28 09:48:36;;;;;;;;;;;;;;;13.33;100.00;100574.25;5127046;28;19930;-66
2022/10/28 09:51:02;;;;;;;;;;;;;;;13.30;100.00;100564.75;5126513;28;19912;-67
2022/10/28 09:53:34;;;;;;;;;;;;;;;13.31;100.00;100558.63;5126947;28;19931;-68
2022/10/28 09:56:01;;;;;;;;;;;;;;;13.32;100.00;100562.94;5126719;28;19930;-68
2022/10/28 09:58:26;;;;;;;;;;;;;;;13.31;100.00;100569.06;5126802;28;19914;-69
2022/10/28 10:00:51;;;;;;;;;;;;;;;13.31;100.00;100561.22;5126310;28;19908;-69
2022/10/28 10:03:17;;;;;;;;;;;;;;;13.30;100.00;100567.34;5126735;28;19943;-68
2022/10/28 10:05:46;;;;;;;;;;;;;;;13.28;100.00;100571.72;5126379;28;19923;-69
2022/10/28 10:08:13;;;;;;;;;;;;;;;13.33;100.00;100569.91;5126787;28;19908;-68
2022/10/28 10:10:40;;;;;;;;;;;;;;;13.30;100.00;100563.88;5126551;28;19911;-70
2022/10/28 10:13:07;;;;;;;;;;;;;;;13.30;100.00;100571.69;5126780;28;19946;-67
2022/10/28 10:15:37;;;;;;;;;;;;;;;13.31;100.00;100571.66;5126321;28;19914;-69
2022/10/28 10:18:04;;;;;;;;;;;;;;;13.33;100.00;100564.69;5126735;28;19908;-69
2022/10/28 10:20:44;;;;;;;;;;;;;;;13.29;100.00;100555.19;5126246;28;19919;-69
2022/10/28 10:23:20;;;;;;;;;;;;;;;13.27;100.00;100555.19;5126346;28;19927;-69
2022/10/28 10:25:52;;;;;;;;;;;;;;;13.29;100.00;100549.13;5126384;28;19957;-71
2022/10/28 10:28:17;;;;;;;;;;;;;;;13.27;100.00;100556.97;5126260;28;19943;-70
2022/10/28 10:30:51;;;;;;;;;;;;;;;13.30;100.00;100553.44;5126353;28;19918;-70
2022/10/28 10:33:27;;;;;;;;;;;;;;;13.29;100.00;100552.56;5126428;28;19907;-69
2022/10/28 10:36:16;;;;;;;;;;;;;;;13.29;100.00;100549.13;5126183;28;19907;-70
2022/10/28 10:38:52;;;;;;;;;;;;;;;13.25;100.00;100550.91;5112629;28;19997;-70
2022/10/28 10:41:34;;;;;;;;;;;;;;;13.26;100.00;100557.84;5126070;28;19998;-70
2022/10/28 10:43:59;;;;;;;;;;;;;;;13.29;100.00;100557.78;5126255;28;19908;-70
2022/10/28 10:46:26;;;;;;;;;;;;;;;13.29;100.00;100563.00;5126126;28;19971;-69
2022/10/28 10:49:05;;;;;;;;;;;;;;;13.27;100.00;100554.38;5126155;28;19919;-70
2022/10/28 10:51:30;;;;;;;;;;;;;;;13.31;100.00;100548.19;5107630;28;20275;-70
2022/10/28 10:53:59;;;;;;;;;;;;;;;13.33;100.00;100545.56;5126233;28;19908;-70
2022/10/28 10:56:29;;;;;;;;;;;;;;;13.35;100.00;100541.19;5126015;28;19907;-70
2022/10/28 10:58:56;;;;;;;;;;;;;;;13.32;100.00;100539.47;5126353;28;19907;-70
2022/10/28 11:01:25;;;;;;;;;;;;;;;13.30;100.00;100554.31;5126226;28;19907;-71
2022/10/28 11:03:58;;;;;;;;;;;;;;;13.26;100.00;100550.03;5126003;28;19907;-73
2022/10/28 11:06:31;;;;;;;;;;;;;;;13.25;100.00;100548.31;5127142;28;20116;-73
2022/10/28 11:08:58;;;;;;;;;;;;;;;13.27;100.00;100551.75;5129916;28;19921;-75
2022/10/28 11:11:30;;;;;;;;;;;;;;;13.25;100.00;100554.41;5129900;28;19951;-75
2022/10/28 11:14:08;;;;;;;;;;;;;;;13.22;100.00;100556.19;5129925;28;19907;-75
2022/10/28 11:16:44;;;;;;;;;;;;;;;13.24;100.00;100560.47;5129766;28;19912;-77
2022/10/28 11:19:20;;;;;;;;;;;;;;;13.22;100.00;100566.63;5111214;28;19907;-75
2022/10/28 11:21:50;;;;;;;;;;;;;;;13.16;100.00;100557.16;5111000;28;19926;-75
2022/10/28 11:24:22;;;;;;;;;;;;;;;13.18;100.00;100559.75;5111466;28;19908;-74
2022/10/28 11:27:10;;;;;;;;;;;;;;;13.14;100.00;100558.94;5129527;28;19908;-73
2022/10/28 11:29:35;;;;;;;;;;;;;;;13.13;100.00;100575.47;5111150;28;20006;-73
2022/10/28 11:32:19;;;;;;;;;;;;;;;13.13;100.00;100565.88;5111118;28;19952;-72
2022/10/28 11:35:03;;;;;;;;;;;;;;;13.10;100.00;100555.50;5129097;28;19907;-70
2022/10/28 11:37:31;;;;;;;;;;;;;;;13.14;100.00;100554.59;5129093;28;19923;-70
2022/10/28 11:40:06;;;;;;;;;;;;;;;13.19;100.00;100551.03;5110900;28;19918;-71
2022/10/28 11:42:49;;;;;;;;;;;;;;;13.25;100.00;100540.50;5129316;28;19907;-70
2022/10/28 11:45:24;;;;;;;;;;;;;;;13.32;100.00;100542.09;5129023;28;19912;-70
2022/10/28 11:47:58;;;;;;;;;;;;;;;13.44;100.00;100541.03;5129240;28;19951;-70
2022/10/28 11:50:37;;;;;;;;;;;;;;;13.48;100.00;100542.66;5128728;28;19983;-70
2022/10/28 11:53:29;;;;;;;;;;;;;;;13.50;100.00;100540.94;5129124;28;19922;-69
2022/10/28 11:56:06;;;;;;;;;;;;;;;13.54;100.00;100533.06;5110625;28;19929;-69
2022/10/28 11:58:31;;;;;;;;;;;;;;;13.52;100.00;100533.09;5110688;28;19915;-70
2022/10/28 12:01:03;;;;;;;;;;;;;;;13.49;100.00;100535.72;5128944;28;19907;-69
2022/10/28 12:03:47;;;;;;;;;;;;;;;13.47;100.00;100516.63;5128919;28;19907;-70
2022/10/28 12:06:21;;;;;;;;;;;;;;;13.51;100.00;100513.13;5110049;28;19915;-70
2022/10/28 12:08:46;;;;;;;;;;;;;;;13.45;100.00;100523.63;5128829;28;19956;-69
2022/10/28 12:11:32;;;;;;;;;;;;;;;13.50;100.00;100524.38;5128435;28;19915;-69
2022/10/28 12:13:57;;;;;;;;;;;;;;;13.45;100.00;100521.03;5127687;28;19957;-69
2022/10/28 12:16:29;;;;;;;;;;;;;;;13.45;100.00;100518.41;5128385;28;19908;-69
2022/10/28 12:18:57;;;;;;;;;;;;;;;13.42;100.00;100521.94;5127292;28;19908;-70
2022/10/28 12:21:29;;;;;;;;;;;;;;;13.43;100.00;100508.03;5109468;28;20012;-69
2022/10/28 12:23:56;;;;;;;;;;;;;;;13.45;100.00;100514.03;5110160;28;19961;-71
2022/10/28 12:26:25;;;;;;;;;;;;;;;13.43;100.00;100523.66;5128529;28;19935;-70
2022/10/28 12:28:52;;;;;;;;;;;;;;;13.46;100.00;100512.31;5110008;28;19961;-71
2022/10/28 12:31:23;;;;;;;;;;;;;;;13.36;100.00;100522.03;5128106;28;19912;-71
2022/10/28 12:33:50;;;;;;;;;;;;;;;13.28;100.00;100514.34;5128203;28;19915;-70
2022/10/28 12:36:23;;;;;;;;;;;;;;;13.22;100.00;100520.56;5127993;28;19926;-71